Time;durP1;ratioP1;P1;durP2;ratioP2;P2;SDS_P1;SDS_P2;PMS_P1;PMS_P2;Temp;Humidity;BMP_temperature;BMP_pressure;BME280_temperature;BME280_humidity;BME280_pressure;Samples;Min_cycle;Max_cycle;Signal;HPM_P1;HPM_P2
2022/07/14 00:01:12;;;;;;;11.48;3.08;;;17.30;93.40;;;;;;4954810;28;94387;-69
2022/07/14 00:03:39;;;;;;;6.15;4.10;;;17.30;93.40;;;;;;4956317;28;92457;-69
2022/07/14 00:06:06;;;;;;;11.50;3.70;;;17.30;93.40;;;;;;4957119;28;91662;-69
2022/07/14 00:08:33;;;;;;;11.18;4.25;;;17.20;93.40;;;;;;4956367;28;93309;-69
2022/07/14 00:11:00;;;;;;;6.70;2.30;;;17.20;93.40;;;;;;4956474;28;93579;-69
2022/07/14 00:13:27;;;;;;;7.03;2.28;;;17.20;93.40;;;;;;4953901;28;94811;-69
2022/07/14 00:15:54;;;;;;;10.50;2.58;;;17.20;93.40;;;;;;4956585;28;92461;-69
2022/07/14 00:18:21;;;;;;;7.03;3.40;;;17.10;93.40;;;;;;4955992;28;93314;-69
2022/07/14 00:20:48;;;;;;;11.00;3.03;;;17.10;93.50;;;;;;4956273;28;95918;-69
2022/07/14 00:23:15;;;;;;;10.73;3.47;;;17.10;93.50;;;;;;4956397;28;92489;-69
2022/07/14 00:25:42;;;;;;;8.35;3.03;;;17.10;93.60;;;;;;4956470;28;92474;-69
2022/07/14 00:28:09;;;;;;;7.28;2.80;;;17.00;93.60;;;;;;4954581;28;95701;-69
2022/07/14 00:30:36;;;;;;;7.45;2.35;;;17.00;93.70;;;;;;4956415;28;100217;-69
2022/07/14 00:33:03;;;;;;;10.23;2.85;;;17.00;93.70;;;;;;4971420;28;92584;-69
2022/07/14 00:35:31;;;;;;;8.15;3.25;;;16.90;93.80;;;;;;4971221;28;92542;-69
2022/07/14 00:37:59;;;;;;;14.70;2.65;;;16.90;93.90;;;;;;4969535;28;95507;-69
2022/07/14 00:40:26;;;;;;;9.43;3.72;;;16.80;93.90;;;;;;4954328;28;97967;-69
2022/07/14 00:42:53;;;;;;;10.07;3.35;;;16.80;94.00;;;;;;4956337;28;92438;-69
2022/07/14 00:45:21;;;;;;;13.70;3.00;;;16.80;94.10;;;;;;4954403;28;92566;-69
2022/07/14 00:47:48;;;;;;;12.48;4.15;;;16.70;94.10;;;;;;4955951;28;93158;-69
2022/07/14 00:50:18;;;;;;;7.80;3.10;;;16.70;94.20;;;;;;4954318;28;94056;-69
2022/07/14 00:52:48;;;;;;;6.78;2.53;;;16.70;94.30;;;;;;4956212;28;92450;-69
2022/07/14 00:55:16;;;;;;;8.98;3.20;;;16.70;94.40;;;;;;4956104;28;91741;-69
2022/07/14 00:57:44;;;;;;;10.15;3.22;;;16.70;94.50;;;;;;4955689;28;93158;-69
2022/07/14 01:00:13;;;;;;;10.50;3.08;;;16.60;94.60;;;;;;4956076;28;92851;-69
2022/07/14 01:02:43;;;;;;;8.98;2.78;;;16.60;94.80;;;;;;4953363;28;94858;-69
2022/07/14 01:05:11;;;;;;;9.45;3.05;;;16.60;94.60;;;;;;4954214;28;92578;-69
2022/07/14 01:07:38;;;;;;;9.18;3.80;;;16.50;94.50;;;;;;4954132;28;94236;-69
2022/07/14 01:10:06;;;;;;;12.75;3.97;;;16.50;94.60;;;;;;4954213;28;95506;-69
2022/07/14 01:12:34;;;;;;;12.02;3.22;;;16.50;94.60;;;;;;4955454;28;92431;-69
2022/07/14 01:15:01;;;;;;;8.90;4.18;;;16.50;94.70;;;;;;4954553;28;92634;-69
2022/07/14 01:17:27;;;;;;;9.80;2.50;;;16.40;94.70;;;;;;4956876;28;97038;-69
2022/07/14 01:19:55;;;;;;;10.30;3.92;;;16.40;94.70;;;;;;4957819;28;95532;-69
2022/07/14 01:22:22;;;;;;;9.13;2.47;;;16.40;94.80;;;;;;4941370;28;92956;-69
2022/07/14 01:24:49;;;;;;;6.88;3.03;;;16.30;94.80;;;;;;4974153;28;92524;-69
2022/07/14 01:27:16;;;;;;;10.15;4.05;;;16.30;94.80;;;;;;4956438;28;98059;-69
2022/07/14 01:29:43;;;;;;;6.25;3.33;;;16.30;94.80;;;;;;4957181;28;97968;-69
2022/07/14 01:32:10;;;;;;;9.50;2.47;;;16.20;94.90;;;;;;4959044;28;92342;-69
2022/07/14 01:34:37;;;;;;;5.28;2.90;;;16.20;94.80;;;;;;4940932;28;92470;-69
2022/07/14 01:37:04;;;;;;;8.40;3.45;;;16.20;94.90;;;;;;4957415;28;94407;-69
2022/07/14 01:39:31;;;;;;;8.75;2.72;;;16.20;95.00;;;;;;4940888;28;95457;-69
2022/07/14 01:41:58;;;;;;;9.13;2.63;;;16.20;95.00;;;;;;4941366;28;92405;-69
2022/07/14 01:44:25;;;;;;;11.30;4.43;;;16.10;95.10;;;;;;4959182;28;91719;-69
2022/07/14 01:46:52;;;;;;;6.15;3.22;;;16.10;95.10;;;;;;4957142;28;95575;-69
2022/07/14 01:49:20;;;;;;;8.73;2.85;;;16.10;95.10;;;;;;4956940;28;95524;-69
2022/07/14 01:51:47;;;;;;;10.88;4.43;;;16.00;95.10;;;;;;4956426;28;95522;-69
2022/07/14 01:54:15;;;;;;;9.40;3.67;;;16.00;95.20;;;;;;4941532;28;92416;-69
2022/07/14 01:56:43;;;;;;;11.20;3.20;;;16.00;95.30;;;;;;4957076;28;95844;-69
2022/07/14 01:59:13;;;;;;;9.05;3.03;;;15.90;95.30;;;;;;4957271;28;95545;-69
2022/07/14 02:01:40;;;;;;;11.50;3.53;;;15.90;95.40;;;;;;4957155;28;92907;-69
2022/07/14 02:04:15;;;;;;;9.40;2.97;;;15.90;95.50;;;;;;4956832;28;92638;-69
2022/07/14 02:06:44;;;;;;;11.77;3.00;;;15.80;95.60;;;;;;4956868;28;95801;-69
2022/07/14 02:09:20;;;;;;;9.40;2.65;;;15.80;95.60;;;;;;4957470;28;95805;-69
2022/07/14 02:14:34;;;;;;;8.50;3.33;;;15.70;95.60;;;;;;4957255;28;92432;-69
2022/07/14 02:17:01;;;;;;;9.30;3.63;;;15.60;95.70;;;;;;4955667;28;98235;-69
2022/07/14 02:19:29;;;;;;;8.43;3.42;;;15.50;95.80;;;;;;4956631;28;97693;-69
2022/07/14 02:21:56;;;;;;;7.07;2.70;;;15.50;95.90;;;;;;4957004;28;93207;-69
2022/07/14 02:24:23;;;;;;;9.73;3.60;;;15.40;95.90;;;;;;4940846;28;92633;-69
2022/07/14 02:26:52;;;;;;;9.40;3.25;;;15.40;96.00;;;;;;4956540;28;95603;-69
2022/07/14 02:29:21;;;;;;;7.38;4.22;;;15.40;96.10;;;;;;4958060;28;93003;-69
2022/07/14 02:31:48;;;;;;;9.20;3.03;;;15.30;96.10;;;;;;4956668;28;92441;-69
2022/07/14 02:34:16;;;;;;;6.57;3.47;;;15.30;96.20;;;;;;4973435;28;91748;-69
2022/07/14 02:36:44;;;;;;;7.82;3.70;;;15.20;96.20;;;;;;4957849;28;93186;-69
2022/07/14 02:39:12;;;;;;;8.57;3.95;;;15.20;96.30;;;;;;4956592;28;94850;-69
2022/07/14 02:41:41;;;;;;;8.63;4.18;;;15.20;96.40;;;;;;4955382;28;94967;-69
2022/07/14 02:44:10;;;;;;;11.27;3.55;;;15.10;96.50;;;;;;4956689;28;92507;-69
2022/07/14 02:46:38;;;;;;;11.43;3.88;;;15.10;96.50;;;;;;4956533;28;94453;-69
2022/07/14 02:49:06;;;;;;;7.00;3.38;;;15.10;96.80;;;;;;4956419;28;95812;-69
2022/07/14 02:51:36;;;;;;;7.43;4.95;;;15.00;96.60;;;;;;4956487;28;92472;-69
2022/07/14 02:54:03;;;;;;;5.85;2.92;;;15.00;96.70;;;;;;4956372;28;92567;-69
2022/07/14 02:56:31;;;;;;;6.65;2.90;;;14.90;96.60;;;;;;4956213;28;95864;-69
2022/07/14 02:58:59;;;;;;;7.93;4.30;;;14.90;96.70;;;;;;4956564;28;95388;-69
2022/07/14 03:01:29;;;;;;;10.07;3.55;;;14.90;96.80;;;;;;4958011;28;92961;-69
2022/07/14 03:03:56;;;;;;;6.28;4.28;;;14.80;96.80;;;;;;4955996;28;92492;-69
2022/07/14 03:06:23;;;;;;;11.70;3.25;;;14.70;96.90;;;;;;4954866;28;98162;-69
2022/07/14 03:08:52;;;;;;;8.40;4.07;;;14.70;96.90;;;;;;4955936;28;98238;-69
2022/07/14 03:11:20;;;;;;;11.23;3.85;;;14.70;97.00;;;;;;4956321;28;92488;-69
2022/07/14 03:13:47;;;;;;;10.38;3.20;;;14.70;97.10;;;;;;4956162;28;92899;-69
2022/07/14 03:16:17;;;;;;;7.65;3.00;;;14.60;97.10;;;;;;4956170;28;95238;-69
2022/07/14 03:18:48;;;;;;;10.80;3.28;;;14.60;97.20;;;;;;4955892;28;95308;-69
2022/07/14 03:21:15;;;;;;;7.93;4.38;;;14.60;97.30;;;;;;4956169;28;92531;-69
2022/07/14 03:23:47;;;;;;;9.23;4.40;;;14.60;97.30;;;;;;4956204;28;91868;-69
2022/07/14 03:26:18;;;;;;;6.97;3.90;;;14.60;97.50;;;;;;4955878;28;95488;-69
2022/07/14 03:28:45;;;;;;;7.85;3.97;;;14.60;97.50;;;;;;4971932;28;92754;-69
2022/07/14 03:31:12;;;;;;;11.38;3.13;;;14.60;97.50;;;;;;4971441;28;95258;-69
2022/07/14 03:33:40;;;;;;;5.63;3.00;;;14.60;97.60;;;;;;4955639;28;92508;-69
2022/07/14 03:36:07;;;;;;;7.20;3.47;;;14.60;97.60;;;;;;4939628;28;95455;-69
2022/07/14 03:38:35;;;;;;;8.43;5.15;;;14.60;97.50;;;;;;4938906;28;95415;-69
2022/07/14 03:41:06;;;;;;;5.90;3.28;;;14.60;97.40;;;;;;4955950;28;93065;-69
2022/07/14 03:43:35;;;;;;;11.15;2.95;;;14.50;97.40;;;;;;4955772;28;92474;-69
2022/07/14 03:46:03;;;;;;;9.25;4.07;;;14.50;97.50;;;;;;4955444;28;95607;-69
2022/07/14 03:48:33;;;;;;;5.22;3.15;;;14.60;97.60;;;;;;4955808;28;95065;-69
2022/07/14 03:51:03;;;;;;;8.20;3.47;;;14.60;97.50;;;;;;4955868;28;92412;-69
2022/07/14 03:53:32;;;;;;;8.55;3.00;;;14.60;97.50;;;;;;4955634;28;92576;-69
2022/07/14 03:56:01;;;;;;;7.97;4.53;;;14.70;97.50;;;;;;4953948;28;97956;-69
2022/07/14 03:58:36;;;;;;;9.73;3.63;;;14.70;97.40;;;;;;4955328;28;97803;-69
2022/07/14 04:01:04;;;;;;;8.20;3.88;;;14.80;97.40;;;;;;4955714;28;92635;-69
2022/07/14 04:03:32;;;;;;;7.47;3.22;;;15.00;97.50;;;;;;4955446;28;92489;-69
2022/07/14 04:05:59;;;;;;;13.00;4.95;;;15.40;97.30;;;;;;4954835;28;95548;-69
2022/07/14 04:08:27;;;;;;;9.60;3.28;;;15.90;96.70;;;;;;4955370;28;95579;-69
2022/07/14 04:10:58;;;;;;;8.98;2.58;;;16.50;95.90;;;;;;4939587;28;92547;-69
2022/07/14 04:13:26;;;;;;;10.10;2.85;;;17.10;95.10;;;;;;4955777;28;92300;-69
2022/07/14 04:15:53;;;;;;;9.20;4.60;;;17.60;94.20;;;;;;4938765;28;95537;-69
2022/07/14 04:18:20;;;;;;;6.72;3.08;;;18.10;93.20;;;;;;4939069;28;95644;-69
2022/07/14 04:20:50;;;;;;;10.02;4.10;;;18.40;92.50;;;;;;4953954;28;94816;-69
2022/07/14 04:23:19;;;;;;;9.30;4.18;;;18.30;92.20;;;;;;4955218;28;92568;-69
2022/07/14 04:25:47;;;;;;;5.50;3.00;;;18.10;92.10;;;;;;4954811;28;95907;-69
2022/07/14 04:28:15;;;;;;;7.18;2.67;;;17.90;92.30;;;;;;4955034;28;95404;-69
2022/07/14 04:30:43;;;;;;;9.82;4.03;;;17.70;92.40;;;;;;4954958;28;92459;-69
2022/07/14 04:33:10;;;;;;;8.68;3.90;;;17.50;92.90;;;;;;4954945;28;92607;-69
2022/07/14 04:35:38;;;;;;;5.97;2.80;;;17.30;92.90;;;;;;4954973;28;94416;-69
2022/07/14 04:38:05;;;;;;;6.93;3.67;;;17.00;93.20;;;;;;4954635;28;95428;-69
2022/07/14 04:40:39;;;;;;;6.43;4.13;;;16.90;93.50;;;;;;4955118;28;92706;-69
2022/07/14 04:43:06;;;;;;;7.68;3.70;;;16.70;93.60;;;;;;4954929;28;92474;-69
2022/07/14 04:45:34;;;;;;;8.35;3.53;;;16.50;93.80;;;;;;4953393;28;97775;-69
2022/07/14 04:48:02;;;;;;;8.48;3.38;;;16.50;93.90;;;;;;4954462;28;97555;-69
2022/07/14 04:53:15;;;;;;;7.55;3.13;;;16.20;94.30;;;;;;4954702;28;92681;-69
2022/07/14 04:55:46;;;;;;;5.97;3.72;;;16.20;94.70;;;;;;4954291;28;93302;-69
2022/07/14 04:58:28;;;;;;;9.00;3.45;;;16.30;94.80;;;;;;4954637;28;95474;-69
2022/07/14 05:00:58;;;;;;;9.00;5.22;;;16.40;94.80;;;;;;4954505;28;92428;-69
2022/07/14 05:03:29;;;;;;;9.32;3.55;;;16.40;94.70;;;;;;4955028;28;91904;-69
2022/07/14 05:05:58;;;;;;;9.65;3.88;;;16.40;94.80;;;;;;4954039;28;95518;-69
2022/07/14 05:08:25;;;;;;;7.13;3.80;;;16.50;94.90;;;;;;4938486;28;95547;-69
2022/07/14 05:10:53;;;;;;;8.07;3.88;;;16.50;94.90;;;;;;4953483;28;95084;-69
2022/07/14 05:13:20;;;;;;;11.10;3.92;;;16.60;94.90;;;;;;4954440;28;92490;-69
2022/07/14 05:15:48;;;;;;;9.88;3.63;;;16.70;94.80;;;;;;4954187;28;95096;-69
2022/07/14 05:18:16;;;;;;;10.25;4.53;;;16.80;94.70;;;;;;4954472;28;95236;-69
2022/07/14 05:20:43;;;;;;;8.45;4.15;;;17.00;94.70;;;;;;4954652;28;92375;-69
2022/07/14 05:23:10;;;;;;;10.45;3.65;;;17.20;94.50;;;;;;4954138;28;92487;-69
2022/07/14 05:25:39;;;;;;;10.23;3.45;;;17.30;94.30;;;;;;4937972;28;95687;-69
2022/07/14 05:28:06;;;;;;;8.35;4.70;;;17.50;94.30;;;;;;4954077;28;95067;-69
2022/07/14 05:30:39;;;;;;;8.57;3.25;;;17.80;93.90;;;;;;4954556;28;93210;-69
2022/07/14 05:33:06;;;;;;;6.82;3.72;;;18.10;93.50;;;;;;4954280;28;92522;-69
2022/07/14 05:35:37;;;;;;;8.43;3.67;;;18.30;93.00;;;;;;4952921;28;98192;-69
2022/07/14 05:38:04;;;;;;;8.98;3.53;;;18.40;92.80;;;;;;4953724;28;97685;-69
2022/07/14 05:40:36;;;;;;;11.07;3.28;;;18.50;92.70;;;;;;4938461;28;92531;-69
2022/07/14 05:43:03;;;;;;;9.25;3.53;;;18.40;92.50;;;;;;4953838;28;92989;-69
2022/07/14 05:45:30;;;;;;;9.35;4.13;;;18.40;92.20;;;;;;4937827;28;95675;-69
2022/07/14 05:47:58;;;;;;;11.73;3.78;;;18.30;92.30;;;;;;4953784;28;95039;-69
2022/07/14 05:50:25;;;;;;;6.35;2.58;;;18.30;92.30;;;;;;4954372;28;93391;-69
2022/07/14 05:52:52;;;;;;;6.95;3.65;;;18.20;92.30;;;;;;4937983;28;91769;-69
2022/07/14 05:55:21;;;;;;;6.82;3.45;;;18.20;92.40;;;;;;4953832;28;95882;-69
2022/07/14 05:57:51;;;;;;;8.73;3.58;;;18.20;92.40;;;;;;4953873;28;94872;-69
2022/07/14 06:00:18;;;;;;;10.32;3.25;;;18.20;92.50;;;;;;4952798;28;94914;-69
2022/07/14 06:02:49;;;;;;;7.55;2.80;;;18.30;92.70;;;;;;4955917;28;92927;-69
2022/07/14 06:05:21;;;;;;;6.15;3.63;;;18.50;92.60;;;;;;4956771;28;95428;-69
2022/07/14 06:07:49;;;;;;;7.00;3.17;;;18.60;92.40;;;;;;4958615;28;92647;-69
2022/07/14 06:10:17;;;;;;;6.68;2.88;;;18.70;92.20;;;;;;4957113;28;93222;-69
2022/07/14 06:12:46;;;;;;;4.55;2.38;;;18.80;92.50;;;;;;4957058;28;92626;-69
2022/07/14 06:15:14;;;;;;;7.05;2.40;;;18.90;92.30;;;;;;4956795;28;95673;-69
2022/07/14 06:17:42;;;;;;;4.68;2.05;;;19.00;92.20;;;;;;4957226;28;95282;-69
2022/07/14 06:20:09;;;;;;;5.35;2.35;;;19.10;92.10;;;;;;4940598;28;92544;-69
2022/07/14 06:22:40;;;;;;;7.25;3.80;;;19.10;92.10;;;;;;4957164;28;93081;-69
2022/07/14 06:25:08;;;;;;;8.98;3.20;;;19.10;92.00;;;;;;4955282;28;97818;-69
2022/07/14 06:27:35;;;;;;;6.25;2.38;;;19.10;91.90;;;;;;4940440;28;97660;-69
2022/07/14 06:30:07;;;;;;;5.80;3.72;;;19.10;92.00;;;;;;4956787;28;92975;-69
2022/07/14 06:32:40;;;;;;;4.80;2.07;;;19.10;91.80;;;;;;4956927;28;92600;-69
2022/07/14 06:35:11;;;;;;;7.78;3.25;;;19.00;91.80;;;;;;4956529;28;95540;-69
2022/07/14 06:37:39;;;;;;;4.75;1.73;;;19.00;92.10;;;;;;4956756;28;94944;-69
2022/07/14 06:40:07;;;;;;;5.38;3.25;;;19.10;92.20;;;;;;4956522;28;92542;-69
2022/07/14 06:42:39;;;;;;;6.43;2.80;;;19.20;91.80;;;;;;4957167;28;91720;-69
2022/07/14 06:45:33;;;;;;;7.17;3.30;;;19.30;91.00;;;;;;4957427;28;93839;-69
2022/07/14 06:48:01;;;;;;;4.30;2.10;;;19.40;91.10;;;;;;4956258;28;95547;-69
2022/07/14 06:50:28;;;;;;;6.13;1.48;;;19.60;91.10;;;;;;4955539;28;94986;-69
2022/07/14 06:52:55;;;;;;;6.20;3.40;;;19.70;90.80;;;;;;4956766;28;93198;-69
2022/07/14 06:55:22;;;;;;;4.57;1.77;;;19.90;90.40;;;;;;4957343;28;102962;-69
2022/07/14 06:57:50;;;;;;;2.92;1.77;;;20.10;89.80;;;;;;4957821;28;93206;-69
2022/07/14 07:00:21;;;;;;;4.93;3.13;;;20.20;89.10;;;;;;4957842;28;92416;-69
2022/07/14 07:02:48;;;;;;;5.20;2.10;;;20.40;89.30;;;;;;4957873;28;92378;-69
2022/07/14 07:08:01;;;;;;;4.78;2.53;;;20.70;87.70;;;;;;4956609;28;95516;-69
2022/07/14 07:10:29;;;;;;;7.80;2.10;;;20.80;87.10;;;;;;4957801;28;92435;-69
2022/07/14 07:12:57;;;;;;;4.50;2.83;;;20.90;86.20;;;;;;4955722;28;92565;-69
2022/07/14 07:15:24;;;;;;;3.30;1.55;;;20.90;85.60;;;;;;4955551;28;95568;-69
2022/07/14 07:17:51;;;;;;;5.88;1.60;;;20.80;85.10;;;;;;4957323;28;95408;-69
2022/07/14 07:20:20;;;;;;;4.75;2.97;;;20.80;85.40;;;;;;4956069;28;92651;-69
2022/07/14 07:22:47;;;;;;;2.75;1.58;;;20.80;84.70;;;;;;4939395;28;96637;-69
2022/07/14 07:25:14;;;;;;;3.83;1.10;;;20.80;85.00;;;;;;4957438;28;93325;-69
2022/07/14 07:27:41;;;;;;;4.80;1.23;;;20.80;84.70;;;;;;4957122;28;106037;-69
2022/07/14 07:30:08;;;;;;;4.18;2.15;;;21.00;84.70;;;;;;4957267;28;92577;-69
2022/07/14 07:32:36;;;;;;;4.57;1.65;;;21.10;84.60;;;;;;4972712;28;91748;-69
2022/07/14 07:35:04;;;;;;;4.43;1.42;;;21.30;83.10;;;;;;4956261;28;93266;-69
2022/07/14 07:37:31;;;;;;;6.50;2.05;;;21.40;83.60;;;;;;4955748;28;93104;-69
2022/07/14 07:39:58;;;;;;;2.97;1.42;;;21.70;82.80;;;;;;4954789;28;94963;-69
2022/07/14 07:42:25;;;;;;;3.50;1.30;;;22.00;81.70;;;;;;4955783;28;92430;-69
2022/07/14 07:44:54;;;;;;;6.30;2.38;;;22.20;80.40;;;;;;4972056;28;93239;-69
2022/07/14 07:47:24;;;;;;;2.97;1.60;;;22.40;79.70;;;;;;4956872;28;93147;-69
2022/07/14 07:49:52;;;;;;;4.32;1.73;;;22.50;79.00;;;;;;4955612;28;92500;-69
2022/07/14 07:52:20;;;;;;;5.13;2.17;;;22.60;77.80;;;;;;4956554;28;98274;-69
2022/07/14 07:54:47;;;;;;;4.70;1.83;;;22.70;77.50;;;;;;4956767;28;93311;-69
2022/07/14 07:57:35;;;;;;;4.50;1.38;;;22.70;77.30;;;;;;4957405;28;93495;-70
2022/07/14 08:00:03;;;;;;;3.45;2.33;;;22.70;77.80;;;;;;4955613;28;92593;-69
2022/07/14 08:02:48;;;;;;;6.18;2.45;;;22.90;76.80;;;;;;4954366;28;92377;-69
2022/07/14 08:05:17;;;;;;;4.88;1.60;;;23.10;75.70;;;;;;4954913;28;95540;-69
2022/07/14 08:08:07;;;;;;;3.80;2.00;;;23.00;75.70;;;;;;4954958;28;98327;-69
2022/07/14 08:10:35;;;;;;;3.88;2.70;;;23.00;75.30;;;;;;4955246;28;92391;-70
2022/07/14 08:13:02;;;;;;;3.72;2.55;;;22.80;75.30;;;;;;4955302;28;92783;-70
2022/07/14 08:15:29;;;;;;;3.05;1.35;;;23.10;75.20;;;;;;4956728;28;93282;-69
2022/07/14 08:17:56;;;;;;;2.97;1.63;;;23.90;74.90;;;;;;4956751;28;93189;-70
2022/07/14 08:20:23;;;;;;;2.90;2.65;;;24.70;71.70;;;;;;4971498;28;92475;-70
2022/07/14 08:22:51;;;;;;;2.70;1.95;;;25.50;69.10;;;;;;4955598;28;92759;-70
2022/07/14 08:25:18;;;;;;;2.92;2.15;;;26.60;67.00;;;;;;4970494;28;93356;-70
2022/07/14 08:27:45;;;;;;;5.63;2.38;;;27.80;62.80;;;;;;4956359;28;93041;-70
2022/07/14 08:30:12;;;;;;;3.10;2.05;;;29.10;60.80;;;;;;4970321;28;94810;-70
2022/07/14 08:32:51;;;;;;;2.45;1.30;;;30.20;57.90;;;;;;4956539;28;92359;-70
2022/07/14 08:35:21;;;;;;;4.20;1.20;;;31.20;54.00;;;;;;4955983;28;93012;-70
2022/07/14 08:37:49;;;;;;;4.40;2.47;;;31.40;54.20;;;;;;4955157;28;92878;-70
2022/07/14 08:40:20;;;;;;;3.83;1.50;;;31.30;52.40;;;;;;4954944;28;92377;-71
2022/07/14 08:42:49;;;;;;;5.22;1.83;;;31.00;51.40;;;;;;4955185;28;92576;-70
2022/07/14 08:45:18;;;;;;;1.88;1.33;;;30.60;52.30;;;;;;4954341;28;98213;-70
2022/07/14 08:47:45;;;;;;;2.35;0.80;;;30.50;50.90;;;;;;4956645;28;93520;-70
2022/07/14 08:50:19;;;;;;;3.55;2.22;;;30.50;51.00;;;;;;4956116;28;92465;-70
2022/07/14 08:52:47;;;;;;;2.00;1.00;;;30.70;50.00;;;;;;4938717;28;92519;-70
2022/07/14 08:55:16;;;;;;;2.13;1.95;;;30.90;49.90;;;;;;4954814;28;95797;-71
2022/07/14 08:57:43;;;;;;;3.65;1.55;;;31.20;49.90;;;;;;4955863;28;95552;-70
2022/07/14 09:00:14;;;;;;;2.88;2.10;;;31.50;50.00;;;;;;4955018;28;92551;-70
2022/07/14 09:02:50;;;;;;;4.18;1.20;;;32.00;49.30;;;;;;4955909;28;92490;-70
2022/07/14 09:05:41;;;;;;;3.72;1.55;;;32.00;48.30;;;;;;4953775;28;94405;-70
2022/07/14 09:08:08;;;;;;;2.13;1.40;;;31.60;49.10;;;;;;4954481;28;95772;-71
2022/07/14 09:10:39;;;;;;;2.45;1.23;;;31.30;48.60;;;;;;4954708;28;92420;-70
2022/07/14 09:13:25;;;;;;;3.17;1.25;;;31.20;48.60;;;;;;4955556;28;91712;-70
2022/07/14 09:16:20;;;;;;;2.50;0.95;;;30.90;48.80;;;;;;4955772;28;93340;-70
2022/07/14 09:19:07;;;;;;;3.45;1.60;;;31.00;48.40;;;;;;4954426;28;95720;-70
2022/07/14 09:21:37;;;;;;;4.50;1.23;;;30.80;48.60;;;;;;4952908;28;95208;-70
2022/07/14 09:24:09;;;;;;;2.35;1.30;;;30.60;48.70;;;;;;4955787;28;92430;-70
2022/07/14 09:27:02;;;;;;;2.63;1.37;;;30.40;49.10;;;;;;4955691;28;93042;-70
2022/07/14 09:29:34;;;;;;;3.58;1.98;;;30.20;48.20;;;;;;4953174;28;92962;-70
2022/07/14 09:32:01;;;;;;;1.65;1.15;;;29.80;48.70;;;;;;4956053;28;92469;-70
2022/07/14 09:34:32;;;;;;;2.72;1.02;;;29.60;49.10;;;;;;4955504;28;92466;-70
2022/07/14 09:37:14;;;;;;;1.42;0.65;;;29.20;50.10;;;;;;4956487;28;93327;-70
2022/07/14 09:39:55;;;;;;;3.83;0.90;;;28.80;50.30;;;;;;4957909;28;95506;-70
2022/07/14 09:42:52;;;;;;;3.50;1.20;;;28.50;51.80;;;;;;4957338;28;92712;-70
2022/07/14 09:45:22;;;;;;;1.73;1.58;;;28.40;51.70;;;;;;4957830;28;92455;-70
2022/07/14 09:48:07;;;;;;;7.13;1.45;;;28.10;52.60;;;;;;4956209;28;94960;-70
2022/07/14 09:50:37;;;;;;;3.33;1.50;;;28.00;53.40;;;;;;4958591;28;95370;-70
2022/07/14 09:53:15;;;;;;;3.25;1.00;;;27.90;53.20;;;;;;4957473;28;92435;-70
2022/07/14 09:56:04;;;;;;;3.03;1.10;;;27.90;53.40;;;;;;4941161;28;92495;-70
2022/07/14 09:58:40;;;;;;;3.30;1.35;;;27.90;53.00;;;;;;4957035;28;94169;-70
2022/07/14 10:01:09;;;;;;;2.80;0.90;;;27.80;53.30;;;;;;4958812;28;93004;-70
2022/07/14 10:03:42;;;;;;;1.98;1.35;;;27.70;53.60;;;;;;4941471;28;92542;-70
2022/07/14 10:06:11;;;;;;;3.60;2.20;;;27.70;53.40;;;;;;4959436;28;91717;-70
2022/07/14 10:08:59;;;;;;;2.28;1.15;;;27.50;52.90;;;;;;4956957;28;95893;-70
2022/07/14 10:11:29;;;;;;;4.00;2.42;;;27.40;53.40;;;;;;4957864;28;105250;-70
2022/07/14 10:13:57;;;;;;;3.47;0.88;;;27.30;54.30;;;;;;4957853;28;95362;-70
2022/07/14 10:16:29;;;;;;;2.38;0.70;;;27.30;54.50;;;;;;4973393;28;92462;-70
2022/07/14 10:18:57;;;;;;;3.28;0.93;;;27.30;54.30;;;;;;4958630;28;93183;-70
2022/07/14 10:21:25;;;;;;;3.30;2.17;;;27.30;54.70;;;;;;4958368;28;93037;-70
2022/07/14 10:23:54;;;;;;;2.95;1.58;;;27.40;54.20;;;;;;4958355;28;92485;-70
2022/07/14 10:26:21;;;;;;;4.13;1.58;;;27.50;53.50;;;;;;4958240;28;92431;-70
2022/07/14 10:28:48;;;;;;;2.38;1.48;;;27.60;53.90;;;;;;4940425;28;95474;-70
2022/07/14 10:31:37;;;;;;;2.55;1.08;;;27.70;53.70;;;;;;4958603;28;93122;-70
2022/07/14 10:34:24;;;;;;;3.53;2.28;;;27.80;53.80;;;;;;4958555;28;92468;-70
2022/07/14 10:37:01;;;;;;;2.00;1.67;;;27.80;53.90;;;;;;4946723;28;92469;-70
2022/07/14 10:40:20;;;;;;;3.30;1.75;;;27.90;53.60;;;;;;4956760;28;95784;-70
2022/07/14 10:43:04;;;;;;;1.75;0.95;;;27.90;54.10;;;;;;4945312;28;95328;-70
2022/07/14 10:45:54;;;;;;;2.55;1.75;;;27.80;53.60;;;;;;4956694;28;92406;-70
2022/07/14 10:48:36;;;;;;;1.95;0.90;;;27.80;53.70;;;;;;4956681;28;92408;-70
2022/07/14 10:51:27;;;;;;;2.72;2.55;;;27.90;53.80;;;;;;4956324;28;94423;-70
2022/07/14 10:54:04;;;;;;;2.00;1.90;;;27.90;54.60;;;;;;4956611;28;93011;-70
2022/07/14 10:57:09;;;;;;;1.92;0.95;;;27.80;54.40;;;;;;4956043;28;92860;-70
2022/07/14 10:59:38;;;;;;;2.05;1.92;;;27.90;54.40;;;;;;4958263;28;91693;-70
2022/07/14 11:02:11;;;;;;;1.40;1.00;;;27.80;54.30;;;;;;4957708;28;93116;-70
2022/07/14 11:04:57;;;;;;;2.00;1.80;;;27.90;54.60;;;;;;4957174;28;92399;-70
2022/07/14 11:07:38;;;;;;;2.45;2.08;;;27.90;53.20;;;;;;4956736;28;94933;-70
2022/07/14 11:10:26;;;;;;;3.17;2.13;;;27.80;54.20;;;;;;4956845;28;92507;-70
2022/07/14 11:13:04;;;;;;;1.90;0.88;;;27.90;53.20;;;;;;4956831;28;93418;-70
2022/07/14 11:15:40;;;;;;;1.58;1.48;;;27.90;53.00;;;;;;4957811;28;93005;-70
2022/07/14 11:18:28;;;;;;;3.40;1.13;;;27.80;53.40;;;;;;4956186;28;92494;-70
2022/07/14 11:21:00;;;;;;;2.22;1.15;;;27.80;53.30;;;;;;4949431;28;92607;-70
2022/07/14 11:23:37;;;;;;;1.60;1.30;;;27.80;53.60;;;;;;4940557;28;94483;-70
2022/07/14 11:26:06;;;;;;;1.60;1.25;;;27.90;53.30;;;;;;4958047;28;93139;-70
2022/07/14 11:28:37;;;;;;;2.03;0.90;;;27.80;53.90;;;;;;4955990;28;92548;-70
2022/07/14 11:31:12;;;;;;;3.05;1.13;;;27.80;53.70;;;;;;4957204;28;92468;-70
2022/07/14 11:36:28;;;;;;;2.15;1.95;;;27.70;54.20;;;;;;4955838;28;97926;-70
2022/07/14 11:39:15;;;;;;;1.70;1.50;;;27.60;53.90;;;;;;4957490;28;92362;-70
2022/07/14 11:41:53;;;;;;;0.95;0.93;;;27.40;53.90;;;;;;4955903;28;92518;-70
2022/07/14 11:44:35;;;;;;;3.50;1.90;;;27.50;54.40;;;;;;4957437;28;93266;-70
2022/07/14 11:47:08;;;;;;;2.88;0.93;;;27.60;54.80;;;;;;4955439;28;94201;-70
2022/07/14 11:49:36;;;;;;;3.92;2.00;;;27.60;55.10;;;;;;4963221;28;92421;-70
2022/07/14 11:52:05;;;;;;;3.15;1.95;;;27.40;55.40;;;;;;4977234;28;91801;-70
2022/07/14 11:54:33;;;;;;;2.38;0.77;;;27.20;55.50;;;;;;4956445;28;103301;-70
2022/07/14 11:57:06;;;;;;;2.83;1.75;;;27.10;56.10;;;;;;4956773;28;93010;-70
2022/07/14 11:59:34;;;;;;;2.58;0.90;;;27.00;56.00;;;;;;4937669;28;94994;-70
2022/07/14 12:02:07;;;;;;;3.17;1.40;;;27.00;56.50;;;;;;4956594;28;92333;-70
2022/07/14 12:04:34;;;;;;;3.15;0.88;;;27.00;56.30;;;;;;4954629;28;94454;-70
2022/07/14 12:07:01;;;;;;;0.98;0.50;;;26.80;56.70;;;;;;4955059;28;96146;-70
2022/07/14 12:09:35;;;;;;;2.20;1.38;;;26.70;56.60;;;;;;4971758;28;93077;-70
2022/07/14 12:12:12;;;;;;;2.05;1.02;;;26.40;57.00;;;;;;4940555;28;92494;-70
2022/07/14 12:14:46;;;;;;;0.70;0.70;;;26.30;57.50;;;;;;4955493;28;93285;-70
2022/07/14 12:17:13;;;;;;;3.50;0.80;;;26.20;57.50;;;;;;4957196;28;93155;-70
2022/07/14 12:19:40;;;;;;;1.67;0.70;;;25.90;57.50;;;;;;4939280;28;93089;-70
2022/07/14 12:22:08;;;;;;;3.35;1.83;;;25.90;58.70;;;;;;4971349;28;92542;-70
2022/07/14 12:24:35;;;;;;;4.20;1.60;;;26.00;58.00;;;;;;4937680;28;98172;-70
2022/07/14 12:27:08;;;;;;;2.05;0.80;;;26.30;58.30;;;;;;4956074;28;95408;-70
2022/07/14 12:29:44;;;;;;;3.00;2.08;;;26.40;57.10;;;;;;4955651;28;92447;-70
2022/07/14 12:32:12;;;;;;;4.65;1.23;;;26.40;58.10;;;;;;4956696;28;92353;-70
2022/07/14 12:34:39;;;;;;;2.20;1.27;;;26.30;57.90;;;;;;4954970;28;96155;-70
2022/07/14 12:37:06;;;;;;;1.55;0.88;;;26.40;57.80;;;;;;4956432;28;92961;-70
2022/07/14 12:39:33;;;;;;;3.78;2.20;;;26.50;57.40;;;;;;4955309;28;92496;-70
2022/07/14 12:42:01;;;;;;;2.47;1.42;;;26.50;57.10;;;;;;4956119;28;91721;-70
2022/07/14 12:44:28;;;;;;;3.30;2.55;;;26.60;57.50;;;;;;4954858;28;94263;-70
2022/07/14 12:47:12;;;;;;;2.95;1.30;;;26.60;57.20;;;;;;4954646;28;95345;-70
2022/07/14 12:49:46;;;;;;;2.92;1.23;;;26.60;56.60;;;;;;4953391;28;94966;-70
2022/07/14 12:52:14;;;;;;;4.43;1.42;;;26.40;58.10;;;;;;4954908;28;92815;-70
2022/07/14 12:54:42;;;;;;;2.55;2.08;;;26.40;57.70;;;;;;4954913;28;96000;-70
2022/07/14 12:57:33;;;;;;;2.60;1.50;;;26.40;57.40;;;;;;4968894;28;92920;-70
2022/07/14 13:00:11;;;;;;;1.85;1.70;;;26.30;56.70;;;;;;4956228;28;92401;-70
2022/07/14 13:02:39;;;;;;;1.27;0.75;;;26.10;56.70;;;;;;4956537;28;92900;-70
2022/07/14 13:05:06;;;;;;;1.52;1.30;;;25.80;58.00;;;;;;4969677;28;111906;-70
2022/07/14 13:07:39;;;;;;;3.50;1.00;;;25.70;57.00;;;;;;4954826;28;95679;-70
2022/07/14 13:10:16;;;;;;;1.33;1.15;;;25.70;56.80;;;;;;4955876;28;92850;-70
2022/07/14 13:12:48;;;;;;;3.95;2.22;;;25.70;57.50;;;;;;4956649;28;92418;-70
2022/07/14 13:15:24;;;;;;;2.35;0.70;;;25.60;56.80;;;;;;4957030;28;95670;-70